createdAt,value
2022-10-18T00:01:05.609Z,9.84
2022-10-18T00:04:11.605Z,9.84
2022-10-18T00:07:17.172Z,9.82
2022-10-18T00:10:24.772Z,9.81
2022-10-18T00:13:30.424Z,9.80
2022-10-18T00:16:36.176Z,9.76
2022-10-18T00:19:41.728Z,9.65
2022-10-18T00:22:47.275Z,9.62
2022-10-18T00:25:59.018Z,9.60
2022-10-18T00:29:07.044Z,9.61
2022-10-18T00:32:13.252Z,9.61
2022-10-18T00:35:17.660Z,9.62
2022-10-18T00:38:23.216Z,9.61
2022-10-18T00:41:34.603Z,9.58
2022-10-18T00:45:03.090Z,9.57
2022-10-18T00:48:09.172Z,9.57
2022-10-18T00:51:15.357Z,9.56
2022-10-18T00:54:20.352Z,9.52
2022-10-18T00:57:26.882Z,9.48
2022-10-18T01:00:32.878Z,9.44
2022-10-18T01:03:39.457Z,9.39
2022-10-18T01:10:26.733Z,9.32
2022-10-18T01:13:42.903Z,9.25
2022-10-18T01:17:00.687Z,9.22
2022-10-18T01:20:56.584Z,9.19
2022-10-18T01:24:30.073Z,9.14
2022-10-18T01:27:52.157Z,9.10
2022-10-18T01:31:02.358Z,9.10
2022-10-18T01:34:11.241Z,9.07
2022-10-18T01:37:20.768Z,9.03
2022-10-18T01:40:27.872Z,8.99
2022-10-18T01:43:36.404Z,8.94
2022-10-18T01:46:43.765Z,8.85
2022-10-18T01:49:49.284Z,8.80
2022-10-18T01:52:54.938Z,8.78
2022-10-18T01:56:13.948Z,8.74
2022-10-18T01:59:34.437Z,8.71
2022-10-18T02:02:47.732Z,8.70
2022-10-18T02:06:00.117Z,8.69
2022-10-18T02:09:10.710Z,8.67
2022-10-18T02:12:18.308Z,8.65
2022-10-18T02:15:29.284Z,8.63
2022-10-18T02:18:40.159Z,8.62
2022-10-18T02:21:48.269Z,8.58
2022-10-18T02:24:57.658Z,8.57
2022-10-18T02:28:03.956Z,8.53
2022-10-18T02:31:23.497Z,8.52
2022-10-18T02:34:37.602Z,8.53
2022-10-18T02:37:44.487Z,8.52
2022-10-18T02:40:50.033Z,8.50
2022-10-18T02:43:56.145Z,8.51
2022-10-18T02:47:01.750Z,8.48
2022-10-18T02:50:08.658Z,8.40
2022-10-18T02:53:14.176Z,8.37
2022-10-18T02:56:19.725Z,8.35
2022-10-18T02:59:25.278Z,8.33
2022-10-18T03:02:30.864Z,8.30
2022-10-18T03:05:36.374Z,8.19
2022-10-18T03:08:42.027Z,8.15
2022-10-18T03:11:47.473Z,8.14
2022-10-18T03:14:52.922Z,8.11
2022-10-18T03:17:58.371Z,8.06
2022-10-18T03:21:07.157Z,8.02
2022-10-18T03:24:12.594Z,8.00
2022-10-18T03:27:18.088Z,7.98
2022-10-18T03:30:23.843Z,7.95
2022-10-18T03:33:29.391Z,7.96
2022-10-18T03:36:35.194Z,7.98
2022-10-18T03:39:40.695Z,7.96
2022-10-18T03:42:46.348Z,7.92
2022-10-18T03:45:52.011Z,7.84
2022-10-18T03:48:57.548Z,7.78
2022-10-18T03:52:03.099Z,7.77
2022-10-18T03:55:10.295Z,7.72
2022-10-18T03:58:15.835Z,7.71
2022-10-18T04:01:21.344Z,7.75
2022-10-18T04:04:27.015Z,7.79
2022-10-18T04:07:32.809Z,7.80
2022-10-18T04:10:39.929Z,7.81
2022-10-18T04:13:45.526Z,7.80
2022-10-18T04:16:51.030Z,7.79
2022-10-18T04:19:56.494Z,7.80
2022-10-18T04:23:01.977Z,7.80
2022-10-18T04:26:07.968Z,7.80
2022-10-18T04:29:13.480Z,7.79
2022-10-18T04:32:18.940Z,7.77
2022-10-18T04:35:26.086Z,7.74
2022-10-18T04:38:31.562Z,7.74
2022-10-18T04:41:37.315Z,7.75
2022-10-18T04:44:43.070Z,7.74
2022-10-18T04:47:48.520Z,7.70
2022-10-18T04:50:53.976Z,7.68
2022-10-18T04:53:59.824Z,7.64
2022-10-18T04:57:05.697Z,7.63
2022-10-18T05:00:13.007Z,7.60
2022-10-18T05:03:18.721Z,7.56
2022-10-18T05:06:24.784Z,7.52
2022-10-18T05:09:30.227Z,7.50
2022-10-18T05:12:35.705Z,7.47
2022-10-18T05:15:41.330Z,7.46
2022-10-18T05:18:46.981Z,7.45
2022-10-18T05:21:52.908Z,7.44
2022-10-18T05:24:58.460Z,7.43
2022-10-18T05:28:10.874Z,7.41
2022-10-18T05:31:26.792Z,7.37
2022-10-18T05:34:33.262Z,7.37
2022-10-18T05:37:38.709Z,7.37
2022-10-18T05:40:44.159Z,7.39
2022-10-18T05:43:49.605Z,7.40
2022-10-18T05:46:55.045Z,7.40
2022-10-18T05:50:00.600Z,7.41
2022-10-18T05:53:12.094Z,7.42
2022-10-18T05:56:18.109Z,7.41
2022-10-18T05:59:23.802Z,7.36
2022-10-18T06:02:29.436Z,7.36
2022-10-18T06:05:34.932Z,7.36
2022-10-18T06:08:41.990Z,7.37
2022-10-18T06:11:47.535Z,7.38
2022-10-18T06:14:53.087Z,7.41
2022-10-18T06:17:59.249Z,7.45
2022-10-18T06:21:05.005Z,7.47
2022-10-18T06:24:10.766Z,7.49
2022-10-18T06:27:16.217Z,7.51
2022-10-18T06:30:21.695Z,7.54
2022-10-18T06:33:27.142Z,7.57
2022-10-18T06:36:32.854Z,7.61
2022-10-18T06:39:38.402Z,7.66
2022-10-18T06:42:50.925Z,7.73
2022-10-18T06:46:08.165Z,7.78
2022-10-18T06:49:18.220Z,7.84
2022-10-18T06:52:25.791Z,7.91
2022-10-18T06:55:31.647Z,8.00
2022-10-18T06:58:37.300Z,8.08
2022-10-18T07:01:43.696Z,8.16
2022-10-18T07:04:49.217Z,8.26
2022-10-18T07:07:56.430Z,8.35
2022-10-18T07:11:02.499Z,8.43
2022-10-18T07:14:08.807Z,8.50
2022-10-18T07:17:15.102Z,8.62
2022-10-18T07:20:20.560Z,8.72
2022-10-18T07:23:26.000Z,8.82
2022-10-18T07:26:33.139Z,8.92
2022-10-18T07:29:39.858Z,9.00
2022-10-18T07:32:45.338Z,9.12
2022-10-18T07:35:50.768Z,9.23
2022-10-18T07:38:56.313Z,9.32
2022-10-18T07:42:01.770Z,9.42
2022-10-18T07:45:08.714Z,9.52
2022-10-18T07:48:14.133Z,9.62
2022-10-18T07:51:20.472Z,9.72
2022-10-18T07:54:24.458Z,9.84
2022-10-18T07:57:30.124Z,9.97
2022-10-18T08:00:35.967Z,10.07
2022-10-18T08:03:42.541Z,10.19
2022-10-18T08:06:47.945Z,10.31
2022-10-18T08:09:53.433Z,10.46
2022-10-18T08:12:58.878Z,10.67
2022-10-18T08:16:06.620Z,10.88
2022-10-18T08:19:12.046Z,11.02
2022-10-18T08:22:17.578Z,11.15
2022-10-18T08:25:23.078Z,11.25
2022-10-18T08:28:28.646Z,11.40
2022-10-18T08:31:34.127Z,11.60
2022-10-18T08:34:39.559Z,11.80
2022-10-18T08:37:45.503Z,12.08
2022-10-18T08:40:50.977Z,12.27
2022-10-18T08:44:06.334Z,12.44
2022-10-18T08:47:18.380Z,12.62
2022-10-18T08:50:28.248Z,12.71
2022-10-18T08:53:41.641Z,12.78
2022-10-18T08:56:55.792Z,12.89
2022-10-18T09:00:02.878Z,13.02
2022-10-18T09:03:25.578Z,13.13
2022-10-18T09:06:35.889Z,13.24
2022-10-18T09:09:49.943Z,13.33
2022-10-18T09:13:24.000Z,13.48
2022-10-18T09:16:36.988Z,13.60
2022-10-18T09:23:16.957Z,13.84
2022-10-18T09:26:24.445Z,14.01
2022-10-18T09:29:45.975Z,14.22
2022-10-18T09:33:01.293Z,14.50
2022-10-18T09:36:09.517Z,14.64
2022-10-18T09:39:17.589Z,14.75
2022-10-18T09:42:28.345Z,14.80
2022-10-18T09:45:38.652Z,14.84
2022-10-18T09:48:50.400Z,14.94
2022-10-18T09:51:56.586Z,15.11
2022-10-18T09:55:07.695Z,15.32
2022-10-18T09:58:14.834Z,15.52
2022-10-18T10:01:24.887Z,15.62
2022-10-18T10:04:30.846Z,15.73
2022-10-18T10:07:42.860Z,15.86
2022-10-18T10:10:50.136Z,15.94
2022-10-18T10:14:08.174Z,16.01
2022-10-18T10:17:26.325Z,16.09
2022-10-18T10:20:37.962Z,16.21
2022-10-18T10:23:52.341Z,16.32
2022-10-18T10:27:06.881Z,16.43
2022-10-18T10:30:25.897Z,16.59
2022-10-18T10:33:38.097Z,16.82
2022-10-18T10:36:49.773Z,17.05
2022-10-18T10:40:22.928Z,17.22
2022-10-18T10:43:39.921Z,17.38
2022-10-18T10:46:46.761Z,17.59
2022-10-18T10:49:52.339Z,17.83
2022-10-18T10:52:58.299Z,18.04
2022-10-18T10:56:03.132Z,18.18
2022-10-18T10:59:17.488Z,18.29
2022-10-18T11:02:27.526Z,18.41
2022-10-18T11:05:43.134Z,18.53
2022-10-18T11:08:51.804Z,18.65
2022-10-18T11:12:09.942Z,18.80
2022-10-18T11:15:23.257Z,18.96
2022-10-18T11:18:33.430Z,19.10
2022-10-18T11:21:41.126Z,19.21
2022-10-18T11:24:46.993Z,19.35
2022-10-18T11:27:56.201Z,19.48
2022-10-18T11:31:13.393Z,19.61
2022-10-18T11:34:32.159Z,19.76
2022-10-18T11:37:59.620Z,19.91
2022-10-18T11:41:22.680Z,20.07
2022-10-18T11:44:34.682Z,20.19
2022-10-18T11:47:53.559Z,20.31
2022-10-18T11:51:10.357Z,20.44
2022-10-18T11:54:35.242Z,20.53
2022-10-18T11:57:51.357Z,20.62
2022-10-18T12:01:02.584Z,20.72
2022-10-18T12:04:14.868Z,20.80
2022-10-18T12:07:27.782Z,20.87
2022-10-18T12:10:52.732Z,20.94
2022-10-18T12:14:03.201Z,21.03
2022-10-18T12:17:40.881Z,21.07
2022-10-18T12:20:47.516Z,21.08
2022-10-18T12:23:57.519Z,21.12
2022-10-18T12:27:04.559Z,21.14
2022-10-18T12:30:23.780Z,21.15
2022-10-18T12:33:35.650Z,21.17
2022-10-18T12:36:56.570Z,21.16
2022-10-18T12:40:11.394Z,21.14
2022-10-18T12:43:24.221Z,21.11
2022-10-18T12:46:46.871Z,21.11
2022-10-18T12:50:00.001Z,21.10
2022-10-18T12:53:16.767Z,21.10
2022-10-18T12:56:42.083Z,21.12
2022-10-18T12:59:47.582Z,21.14
2022-10-18T13:03:47.599Z,21.19
2022-10-18T13:07:21.001Z,21.22
2022-10-18T13:10:42.903Z,21.23
2022-10-18T13:17:21.170Z,21.22
2022-10-18T13:20:35.128Z,21.18
2022-10-18T13:23:51.112Z,21.16
2022-10-18T13:27:35.372Z,21.14
2022-10-18T13:30:52.349Z,21.07
2022-10-18T13:34:17.290Z,21.05
2022-10-18T13:37:26.015Z,21.02
2022-10-18T13:40:31.646Z,20.97
2022-10-18T13:44:00.725Z,20.96
2022-10-18T13:47:17.614Z,20.92
2022-10-18T13:50:32.555Z,20.88
2022-10-18T13:53:51.585Z,20.85
2022-10-18T13:57:14.065Z,20.81
2022-10-18T14:00:32.860Z,20.78
2022-10-18T14:03:58.633Z,20.74
2022-10-18T14:07:07.219Z,20.69
2022-10-18T14:10:29.786Z,20.63
2022-10-18T14:13:57.577Z,20.58
2022-10-18T14:17:07.763Z,20.55
2022-10-18T14:20:28.731Z,20.52
2022-10-18T14:23:41.272Z,20.49
2022-10-18T14:26:46.846Z,20.45
2022-10-18T14:30:09.098Z,20.39
2022-10-18T14:33:27.644Z,20.33
2022-10-18T14:36:40.971Z,20.27
2022-10-18T14:39:46.442Z,20.19
2022-10-18T14:42:52.253Z,20.11
2022-10-18T14:45:56.266Z,20.04
2022-10-18T14:49:05.318Z,19.93
2022-10-18T14:52:15.146Z,19.80
2022-10-18T14:55:24.607Z,19.66
2022-10-18T14:58:30.343Z,19.57
2022-10-18T15:01:36.599Z,19.44
2022-10-18T15:04:44.767Z,19.29
2022-10-18T15:07:52.019Z,19.16
2022-10-18T15:10:58.053Z,19.01
2022-10-18T15:14:06.839Z,18.84
2022-10-18T15:17:18.183Z,18.66
2022-10-18T15:20:27.214Z,18.48
2022-10-18T15:23:33.070Z,18.32
2022-10-18T15:26:37.088Z,18.20
2022-10-18T15:29:44.191Z,18.07
2022-10-18T15:32:54.739Z,17.89
2022-10-18T15:36:11.599Z,17.71
2022-10-18T15:39:20.512Z,17.54
2022-10-18T15:42:39.664Z,17.40
2022-10-18T15:45:49.042Z,17.25
2022-10-18T15:48:54.470Z,17.12
2022-10-18T15:52:37.739Z,16.99
2022-10-18T15:55:52.325Z,16.83
2022-10-18T15:58:58.928Z,16.66
2022-10-18T16:02:04.705Z,16.51
2022-10-18T16:05:17.827Z,16.36
2022-10-18T16:08:25.758Z,16.23
2022-10-18T16:11:31.444Z,16.12
2022-10-18T16:14:37.105Z,16.01
2022-10-18T16:17:42.572Z,15.90
2022-10-18T16:20:49.144Z,15.85
2022-10-18T16:23:55.045Z,15.76
2022-10-18T16:27:00.462Z,15.66
2022-10-18T16:30:15.319Z,15.56
2022-10-18T16:33:21.714Z,15.49
2022-10-18T16:36:29.922Z,15.40
2022-10-18T16:39:35.728Z,15.28
2022-10-18T16:42:41.175Z,15.14
2022-10-18T16:45:46.753Z,15.03
2022-10-18T16:48:53.094Z,14.94
2022-10-18T16:51:59.572Z,14.84
2022-10-18T16:55:05.470Z,14.74
2022-10-18T16:58:17.574Z,14.67
2022-10-18T17:01:24.954Z,14.58
2022-10-18T17:04:30.471Z,14.48
2022-10-18T17:07:36.119Z,14.35
2022-10-18T17:10:41.668Z,14.23
2022-10-18T17:13:47.361Z,14.12
2022-10-18T17:16:55.928Z,14.06
2022-10-18T17:20:02.941Z,14.00
2022-10-18T17:23:09.352Z,13.86
2022-10-18T17:26:28.405Z,13.76
2022-10-18T17:29:35.072Z,13.67
2022-10-18T17:32:44.068Z,13.58
2022-10-18T17:35:53.373Z,13.46
2022-10-18T17:38:59.426Z,13.38
2022-10-18T17:42:03.480Z,13.34
2022-10-18T17:45:11.603Z,13.27
2022-10-18T17:48:17.247Z,13.20
2022-10-18T17:51:23.101Z,13.16
2022-10-18T17:54:28.971Z,13.10
2022-10-18T17:57:34.989Z,13.04
2022-10-18T18:00:40.773Z,12.97
2022-10-18T18:03:47.833Z,12.88
2022-10-18T18:06:54.231Z,12.82
2022-10-18T18:09:59.781Z,12.80
2022-10-18T18:13:05.354Z,12.73
2022-10-18T18:16:16.649Z,12.64
2022-10-18T18:19:24.106Z,12.56
2022-10-18T18:22:29.750Z,12.50
2022-10-18T18:25:35.412Z,12.49
2022-10-18T18:28:40.997Z,12.43
2022-10-18T18:31:47.433Z,12.37
2022-10-18T18:34:51.359Z,12.32
2022-10-18T18:37:58.001Z,12.25
2022-10-18T18:41:09.008Z,12.20
2022-10-18T18:44:14.852Z,12.12
2022-10-18T18:47:23.555Z,12.07
2022-10-18T18:50:31.422Z,12.02
2022-10-18T18:53:38.566Z,11.97
2022-10-18T18:56:45.037Z,11.94
2022-10-18T18:59:50.791Z,11.92
2022-10-18T19:02:56.264Z,11.90
2022-10-18T19:06:07.985Z,11.91
2022-10-18T19:09:19.555Z,11.95
2022-10-18T19:12:24.997Z,11.97
2022-10-18T19:15:30.622Z,11.97
2022-10-18T19:18:36.172Z,11.94
2022-10-18T19:21:44.433Z,11.91
2022-10-18T19:24:50.035Z,11.90
2022-10-18T19:27:55.892Z,11.89
2022-10-18T19:31:01.422Z,11.88
2022-10-18T19:34:09.199Z,11.88
2022-10-18T19:37:16.517Z,11.90
2022-10-18T19:40:22.084Z,11.89
2022-10-18T19:43:28.454Z,11.83
2022-10-18T19:46:33.900Z,11.84
2022-10-18T19:49:39.654Z,11.89
2022-10-18T19:52:45.060Z,11.93
2022-10-18T19:55:50.571Z,11.96
2022-10-18T19:58:56.918Z,11.99
2022-10-18T20:02:04.550Z,11.99
2022-10-18T20:05:11.613Z,12.02
2022-10-18T20:08:17.050Z,12.10
2022-10-18T20:11:24.749Z,12.17
2022-10-18T20:14:30.197Z,12.24
2022-10-18T20:17:35.823Z,12.38
2022-10-18T20:20:44.534Z,12.62
2022-10-18T20:23:53.090Z,12.88
2022-10-18T20:26:58.697Z,13.11
2022-10-18T20:30:07.666Z,13.33
2022-10-18T20:33:16.907Z,13.55
2022-10-18T20:36:22.662Z,13.73
2022-10-18T20:39:28.302Z,13.89
2022-10-18T20:42:33.718Z,14.05
2022-10-18T20:45:39.309Z,14.20
2022-10-18T20:48:44.756Z,14.34
2022-10-18T20:51:50.396Z,14.46
2022-10-18T20:54:55.855Z,14.57
2022-10-18T20:58:02.313Z,14.68
2022-10-18T21:01:14.002Z,14.78
2022-10-18T21:04:19.570Z,14.84
2022-10-18T21:07:25.225Z,14.90
2022-10-18T21:10:30.669Z,14.93
2022-10-18T21:13:36.666Z,14.92
2022-10-18T21:16:43.408Z,14.89
2022-10-18T21:19:48.967Z,14.81
2022-10-18T21:22:54.403Z,14.71
2022-10-18T21:26:00.261Z,14.65
2022-10-18T21:29:06.840Z,14.59
2022-10-18T21:32:12.382Z,14.53
2022-10-18T21:35:17.934Z,14.41
2022-10-18T21:38:23.366Z,14.27
2022-10-18T21:41:28.932Z,14.13
2022-10-18T21:44:34.483Z,14.06
2022-10-18T21:47:40.030Z,13.98
2022-10-18T21:50:45.578Z,13.91
2022-10-18T21:53:53.496Z,13.85
2022-10-18T21:56:58.976Z,13.82
2022-10-18T22:00:05.890Z,13.80
2022-10-18T22:03:13.103Z,13.74
2022-10-18T22:06:19.827Z,13.67
2022-10-18T22:09:25.225Z,13.62
2022-10-18T22:12:30.773Z,13.59
2022-10-18T22:18:43.244Z,13.49
2022-10-18T22:21:47.215Z,13.46
2022-10-18T22:24:52.641Z,13.44
2022-10-18T22:27:58.112Z,13.40
2022-10-18T22:31:03.661Z,13.41
2022-10-18T22:34:12.023Z,13.40
2022-10-18T22:37:17.472Z,13.40
2022-10-18T22:40:23.076Z,13.40
2022-10-18T22:43:29.992Z,13.42
2022-10-18T22:46:36.327Z,13.44
2022-10-18T22:49:41.757Z,13.46
2022-10-18T22:52:47.898Z,13.46
2022-10-18T22:55:54.861Z,13.47
2022-10-18T22:59:00.328Z,13.48
2022-10-18T23:02:05.812Z,13.50
2022-10-18T23:05:11.870Z,13.51
2022-10-18T23:08:17.323Z,13.52
2022-10-18T23:11:23.321Z,13.52
2022-10-18T23:14:29.034Z,13.53
2022-10-18T23:17:34.782Z,13.54
2022-10-18T23:20:40.646Z,13.54
2022-10-18T23:23:46.502Z,13.54
2022-10-18T23:26:51.950Z,13.54
2022-10-18T23:29:57.400Z,13.53
2022-10-18T23:33:02.829Z,13.53
2022-10-18T23:36:09.914Z,13.54
2022-10-18T23:39:15.478Z,13.53
2022-10-18T23:42:21.028Z,13.52
2022-10-18T23:45:26.578Z,13.53
2022-10-18T23:48:32.332Z,13.53
2022-10-18T23:51:37.889Z,13.52
2022-10-18T23:57:49.717Z,13.52
